Terminal Aerodrome Forecast
Issued by NWS

Home | Current Version | Previous Version | Text Only | Print | Product List | Glossary On
Versions: 1 2 3 4 5 6 7 8 9 10 11 12 13 14
000
FTUS45 KTFX 290300 AAB
TAFGTF
TAF AMD
KGTF 290322Z 2903/2924 35014G22KT P6SM SCT090 BKN120
     FM290700 36010KT P6SM SKC
     FM291000 33006KT P6SM OVC012
     FM291600 19005KT P6SM BKN250
     FM292000 20008KT P6SM FEW090=

USA.gov is the U.S. government's official web portal to all federal, state and local government web resources and services.